createdAt,value
2018-03-08T00:00:51.185Z,75.00
2018-03-08T00:03:18.666Z,71.57
2018-03-08T00:05:46.222Z,65.60
2018-03-08T00:08:13.727Z,70.47
2018-03-08T00:10:41.189Z,62.23
2018-03-08T00:13:08.646Z,73.33
2018-03-08T00:15:36.238Z,70.70
2018-03-08T00:18:03.692Z,68.77
2018-03-08T00:20:31.156Z,70.03
2018-03-08T00:22:58.716Z,67.57
2018-03-08T00:25:26.176Z,62.27
2018-03-08T00:27:53.652Z,69.90
2018-03-08T00:30:21.178Z,76.20
2018-03-08T00:32:48.652Z,73.33
2018-03-08T00:35:16.118Z,70.63
2018-03-08T00:37:43.585Z,73.60
2018-03-08T00:40:11.110Z,73.20
2018-03-08T00:42:38.703Z,66.20
2018-03-08T00:45:06.175Z,70.13
2018-03-08T00:47:33.688Z,72.43
2018-03-08T00:50:01.180Z,66.10
2018-03-08T00:52:28.681Z,66.83
2018-03-08T00:54:56.155Z,63.30
2018-03-08T00:57:23.614Z,65.97
2018-03-08T00:59:51.120Z,66.20
2018-03-08T01:02:18.584Z,67.57
2018-03-08T01:04:46.058Z,67.10
2018-03-08T01:07:13.537Z,68.90
2018-03-08T01:09:41.037Z,90.13
2018-03-08T01:12:08.504Z,67.33
2018-03-08T01:14:35.988Z,68.00
2018-03-08T01:17:03.480Z,66.80
2018-03-08T01:19:30.945Z,69.30
2018-03-08T01:21:58.429Z,66.77
2018-03-08T01:24:25.923Z,73.73
2018-03-08T01:26:53.382Z,71.93
2018-03-08T01:29:20.836Z,70.50
2018-03-08T01:31:48.351Z,68.87
2018-03-08T01:34:15.811Z,71.33
2018-03-08T01:36:43.279Z,69.57
2018-03-08T01:39:10.766Z,65.00
2018-03-08T01:41:38.237Z,76.53
2018-03-08T01:44:05.701Z,63.23
2018-03-08T01:46:33.185Z,67.17
2018-03-08T01:49:00.648Z,72.67
2018-03-08T01:51:28.129Z,70.00
2018-03-08T01:53:55.650Z,70.10
2018-03-08T01:56:23.206Z,74.37
2018-03-08T01:58:50.701Z,69.20
2018-03-08T02:01:18.204Z,73.50
2018-03-08T02:03:45.688Z,77.13
2018-03-08T02:06:13.194Z,76.60
2018-03-08T02:08:40.666Z,70.60
2018-03-08T02:13:42.065Z,73.17
2018-03-08T02:16:09.561Z,71.30
2018-03-08T02:18:37.039Z,69.87
2018-03-08T02:21:04.554Z,75.30
2018-03-08T02:23:32.013Z,69.80
2018-03-08T02:25:59.569Z,73.30
2018-03-08T02:28:27.113Z,73.27
2018-03-08T02:30:54.589Z,72.80
2018-03-08T02:33:22.081Z,70.70
2018-03-08T02:35:49.575Z,71.10
2018-03-08T02:38:17.064Z,70.20
2018-03-08T02:40:44.573Z,70.83
2018-03-08T02:43:12.039Z,70.20
2018-03-08T02:45:39.531Z,72.57
2018-03-08T02:48:07.026Z,71.27
2018-03-08T02:50:34.530Z,71.13
2018-03-08T02:53:02.011Z,67.37
2018-03-08T02:55:29.509Z,66.67
2018-03-08T02:57:56.996Z,71.83
2018-03-08T03:00:24.485Z,75.03
2018-03-08T03:02:52.022Z,66.80
2018-03-08T03:05:19.497Z,65.60
2018-03-08T03:07:46.961Z,70.43
2018-03-08T03:10:14.445Z,73.90
2018-03-08T03:12:41.926Z,70.30
2018-03-08T03:15:09.396Z,68.00
2018-03-08T03:17:36.856Z,70.80
2018-03-08T03:20:04.351Z,69.77
2018-03-08T03:22:31.847Z,72.30
2018-03-08T03:24:59.353Z,69.77
2018-03-08T03:27:26.852Z,70.53
2018-03-08T03:29:54.324Z,70.73
2018-03-08T03:32:21.802Z,71.17
2018-03-08T03:34:49.306Z,67.70
2018-03-08T03:37:16.782Z,68.30
2018-03-08T03:39:44.260Z,69.07
2018-03-08T03:42:11.735Z,71.87
2018-03-08T03:44:39.222Z,67.63
2018-03-08T03:47:06.700Z,67.77
2018-03-08T03:49:34.179Z,67.00
2018-03-08T03:52:01.687Z,69.50
2018-03-08T03:54:29.152Z,71.57
2018-03-08T03:56:56.632Z,67.07
2018-03-08T03:59:24.169Z,68.93
2018-03-08T04:01:51.734Z,68.37
2018-03-08T04:04:19.259Z,71.83
2018-03-08T04:06:46.760Z,69.67
2018-03-08T04:09:14.248Z,66.93
2018-03-08T04:11:41.728Z,69.53
2018-03-08T04:14:09.219Z,65.57
2018-03-08T04:16:36.714Z,66.50
2018-03-08T04:19:04.223Z,68.43
2018-03-08T04:21:31.735Z,65.70
2018-03-08T04:23:59.243Z,71.00
2018-03-08T04:26:26.752Z,70.13
2018-03-08T04:28:54.247Z,70.70
2018-03-08T04:31:21.702Z,70.90
2018-03-08T04:33:49.189Z,68.33
2018-03-08T04:36:16.687Z,70.97
2018-03-08T04:38:44.150Z,69.63
2018-03-08T04:41:11.626Z,71.23
2018-03-08T04:43:39.122Z,71.80
2018-03-08T04:46:06.584Z,71.00
2018-03-08T04:48:34.053Z,74.77
2018-03-08T04:51:01.571Z,68.40
2018-03-08T04:53:29.130Z,70.50
2018-03-08T04:55:56.632Z,73.03
2018-03-08T04:58:24.130Z,70.20
2018-03-08T05:00:51.636Z,68.00
2018-03-08T05:03:19.102Z,70.40
2018-03-08T05:05:46.591Z,66.13
2018-03-08T05:08:14.065Z,66.63
2018-03-08T05:10:41.537Z,70.87
2018-03-08T05:13:09.020Z,67.53
2018-03-08T05:15:36.492Z,70.87
2018-03-08T05:18:03.952Z,69.47
2018-03-08T05:20:31.439Z,67.60
2018-03-08T05:22:58.935Z,65.70
2018-03-08T05:25:26.435Z,61.80
2018-03-08T05:27:53.918Z,65.70
2018-03-08T05:30:21.501Z,62.47
2018-03-08T05:32:49.007Z,63.60
2018-03-08T05:35:16.470Z,61.27
2018-03-08T05:37:43.941Z,61.90
2018-03-08T05:40:11.638Z,64.13
2018-03-08T05:42:39.096Z,64.93
2018-03-08T05:45:06.565Z,66.90
2018-03-08T05:47:34.054Z,64.60
2018-03-08T05:50:01.523Z,69.40
2018-03-08T05:52:29.044Z,64.63
2018-03-08T05:54:56.567Z,60.00
2018-03-08T05:57:24.035Z,61.30
2018-03-08T05:59:51.504Z,60.60
2018-03-08T06:02:19.005Z,60.97
2018-03-08T06:04:46.500Z,61.57
2018-03-08T06:07:14.003Z,58.07
2018-03-08T06:09:41.489Z,54.00
2018-03-08T06:12:09.012Z,50.87
2018-03-08T06:14:36.516Z,49.80
2018-03-08T06:17:03.980Z,52.00
2018-03-08T06:19:31.519Z,43.63
2018-03-08T06:21:59.024Z,47.47
2018-03-08T06:24:26.483Z,45.03
2018-03-08T06:26:53.987Z,46.77
2018-03-08T06:29:21.475Z,43.87
2018-03-08T06:31:48.926Z,41.47
2018-03-08T06:34:16.398Z,44.83
2018-03-08T06:36:43.907Z,42.63
2018-03-08T06:39:11.408Z,41.60
2018-03-08T06:41:38.866Z,43.20
2018-03-08T06:44:06.479Z,38.67
2018-03-08T06:46:33.995Z,40.77
2018-03-08T06:49:01.496Z,40.03
2018-03-08T06:51:29.020Z,41.07
2018-03-08T06:53:56.580Z,39.90
2018-03-08T06:56:24.062Z,37.10
2018-03-08T06:58:51.575Z,41.73
2018-03-08T07:01:19.087Z,41.33
2018-03-08T07:03:46.553Z,38.10
2018-03-08T07:06:14.031Z,38.03
2018-03-08T07:08:41.584Z,39.70
2018-03-08T07:11:09.051Z,34.63
2018-03-08T07:13:36.532Z,34.00
2018-03-08T07:16:04.090Z,35.50
2018-03-08T07:18:31.564Z,32.53
2018-03-08T07:20:59.019Z,30.50
2018-03-08T07:23:26.559Z,33.67
2018-03-08T07:25:54.021Z,29.10
2018-03-08T07:28:21.491Z,28.80
2018-03-08T07:30:49.250Z,29.20
2018-03-08T07:33:16.734Z,25.10
2018-03-08T07:35:44.215Z,27.70
2018-03-08T07:38:11.690Z,28.53
2018-03-08T07:40:39.168Z,28.07
2018-03-08T07:43:06.660Z,23.43
2018-03-08T07:45:34.131Z,23.60
2018-03-08T07:48:01.604Z,25.83
2018-03-08T07:50:29.078Z,25.13
2018-03-08T07:52:56.543Z,24.37
2018-03-08T07:55:24.113Z,25.07
2018-03-08T07:57:51.576Z,25.63
2018-03-08T08:00:19.056Z,24.30
2018-03-08T08:02:46.553Z,25.17
2018-03-08T08:05:25.984Z,22.60
2018-03-08T08:08:05.263Z,21.90
2018-03-08T08:10:32.811Z,24.20
2018-03-08T08:13:00.252Z,23.80
2018-03-08T08:15:27.750Z,25.20
2018-03-08T08:17:55.207Z,21.57
2018-03-08T08:20:22.734Z,22.67
2018-03-08T08:22:50.227Z,22.90
2018-03-08T08:25:17.778Z,21.13
2018-03-08T08:27:45.239Z,21.90
2018-03-08T08:30:12.774Z,23.23
2018-03-08T08:32:40.347Z,19.77
2018-03-08T08:35:07.840Z,20.53
2018-03-08T08:37:35.324Z,25.57
2018-03-08T08:40:02.809Z,20.60
2018-03-08T08:42:30.319Z,19.63
2018-03-08T08:44:57.827Z,21.40
2018-03-08T08:47:25.314Z,20.90
2018-03-08T08:49:52.838Z,21.80
2018-03-08T08:52:20.302Z,21.80
2018-03-08T08:54:47.824Z,21.23
2018-03-08T08:57:15.337Z,19.40
2018-03-08T08:59:42.807Z,18.90
2018-03-08T09:02:10.310Z,19.63
2018-03-08T09:04:37.778Z,19.83
2018-03-08T09:07:05.308Z,20.17
2018-03-08T09:09:32.841Z,19.10
2018-03-08T09:12:00.375Z,18.50
2018-03-08T09:14:27.852Z,19.93
2018-03-08T09:16:55.305Z,20.93
2018-03-08T09:19:22.755Z,20.93
2018-03-08T09:21:50.246Z,19.80
2018-03-08T09:24:17.719Z,17.27
2018-03-08T09:26:45.174Z,15.90
2018-03-08T09:29:12.673Z,18.27
2018-03-08T09:31:40.197Z,19.83
2018-03-08T09:34:07.781Z,17.50
2018-03-08T09:36:35.376Z,18.63
2018-03-08T09:39:02.913Z,15.80
2018-03-08T09:41:30.376Z,17.07
2018-03-08T09:43:57.878Z,15.30
2018-03-08T09:46:25.358Z,16.70
2018-03-08T09:48:52.814Z,17.00
2018-03-08T09:51:20.279Z,17.17
2018-03-08T09:53:47.760Z,16.57
2018-03-08T09:56:15.233Z,10.80
2018-03-08T09:58:42.738Z,14.13
2018-03-08T10:01:10.205Z,14.07
2018-03-08T10:03:37.685Z,14.40
2018-03-08T10:06:05.159Z,15.77
2018-03-08T10:08:32.626Z,15.10
2018-03-08T10:11:00.096Z,13.20
2018-03-08T10:13:27.615Z,16.30
2018-03-08T10:15:55.073Z,16.00
2018-03-08T10:18:22.586Z,15.37
2018-03-08T10:20:50.090Z,17.57
2018-03-08T10:23:17.542Z,17.83
2018-03-08T10:25:45.025Z,16.27
2018-03-08T10:28:12.558Z,20.00
2018-03-08T10:30:40.061Z,19.40
2018-03-08T10:33:07.623Z,21.00
2018-03-08T10:35:35.150Z,22.97
2018-03-08T10:38:02.628Z,21.70
2018-03-08T10:42:57.605Z,21.03
2018-03-08T10:45:25.089Z,21.53
2018-03-08T10:47:52.540Z,20.67
2018-03-08T10:50:20.032Z,20.17
2018-03-08T10:52:47.556Z,22.30
2018-03-08T10:55:15.060Z,21.93
2018-03-08T10:57:42.526Z,22.00
2018-03-08T11:00:09.996Z,21.87
2018-03-08T11:02:43.161Z,22.37
2018-03-08T11:05:10.640Z,24.60
2018-03-08T11:07:38.120Z,24.20
2018-03-08T11:10:05.597Z,24.10
2018-03-08T11:12:33.100Z,22.70
2018-03-08T11:15:00.631Z,23.73
2018-03-08T11:17:28.102Z,21.20
2018-03-08T11:19:55.638Z,24.07
2018-03-08T11:22:23.114Z,24.00
2018-03-08T11:24:50.589Z,23.40
2018-03-08T11:27:18.090Z,26.83
2018-03-08T11:29:45.639Z,25.60
2018-03-08T11:32:13.155Z,26.13
2018-03-08T11:34:40.631Z,26.80
2018-03-08T11:37:08.202Z,26.50
2018-03-08T11:39:35.692Z,23.00
2018-03-08T11:42:03.162Z,26.83
2018-03-08T11:44:30.640Z,25.17
2018-03-08T11:46:58.090Z,23.27
2018-03-08T11:49:25.643Z,26.07
2018-03-08T11:51:53.135Z,26.13
2018-03-08T11:54:20.596Z,23.73
2018-03-08T11:56:48.091Z,24.37
2018-03-08T11:59:15.656Z,23.87
2018-03-08T12:01:43.110Z,24.03
2018-03-08T12:04:10.588Z,23.20
2018-03-08T12:06:38.055Z,22.13
2018-03-08T12:09:05.515Z,22.77
2018-03-08T12:11:32.991Z,23.57
2018-03-08T12:14:00.493Z,21.37
2018-03-08T12:16:27.958Z,21.37
2018-03-08T12:18:55.410Z,20.07
2018-03-08T12:21:23.004Z,21.10
2018-03-08T12:23:50.463Z,18.33
2018-03-08T12:26:17.922Z,20.40
2018-03-08T12:28:45.406Z,22.47
2018-03-08T12:31:12.975Z,20.50
2018-03-08T12:33:40.443Z,21.40
2018-03-08T12:36:08.133Z,21.40
2018-03-08T12:38:35.614Z,21.00
2018-03-08T12:41:03.067Z,23.40
2018-03-08T12:43:30.583Z,24.00
2018-03-08T12:45:58.086Z,23.23
2018-03-08T12:48:25.543Z,20.07
2018-03-08T12:50:53.006Z,22.67
2018-03-08T12:53:20.512Z,21.03
2018-03-08T12:55:48.058Z,21.40
2018-03-08T12:58:15.633Z,21.40
2018-03-08T13:00:43.122Z,21.00
2018-03-08T13:03:10.597Z,22.30
2018-03-08T13:05:38.107Z,18.10
2018-03-08T13:08:05.587Z,20.97
2018-03-08T13:10:33.048Z,21.57
2018-03-08T13:13:00.522Z,20.63
2018-03-08T13:15:27.996Z,20.60
2018-03-08T13:17:55.578Z,22.00
2018-03-08T13:20:23.030Z,22.10
2018-03-08T13:22:50.488Z,21.80
2018-03-08T13:25:18.004Z,20.33
2018-03-08T13:27:45.500Z,18.07
2018-03-08T13:30:12.966Z,19.47
2018-03-08T13:32:40.544Z,17.87
2018-03-08T13:35:08.106Z,18.00
2018-03-08T13:37:35.612Z,18.67
2018-03-08T13:40:03.071Z,19.27
2018-03-08T13:42:30.536Z,16.70
2018-03-08T13:44:58.005Z,17.17
2018-03-08T13:47:25.467Z,18.23
2018-03-08T13:49:52.971Z,15.70
2018-03-08T13:52:20.438Z,16.43
2018-03-08T13:54:47.971Z,15.20
2018-03-08T13:57:15.482Z,14.27
2018-03-08T13:59:42.938Z,16.30
2018-03-08T14:02:10.391Z,17.03
2018-03-08T14:04:37.867Z,17.30
2018-03-08T14:07:05.330Z,15.90
2018-03-08T14:09:32.791Z,16.40
2018-03-08T14:12:00.267Z,14.97
2018-03-08T14:14:27.759Z,15.30
2018-03-08T14:16:55.225Z,17.03
2018-03-08T14:19:22.725Z,17.17
2018-03-08T14:21:50.195Z,16.33
2018-03-08T14:24:17.742Z,15.40
2018-03-08T14:26:45.211Z,12.37
2018-03-08T14:29:12.718Z,11.83
2018-03-08T14:31:40.183Z,13.23
2018-03-08T14:34:07.662Z,12.10
2018-03-08T14:36:35.168Z,13.13
2018-03-08T14:39:02.628Z,15.83
2018-03-08T14:41:30.089Z,11.43
2018-03-08T14:43:57.576Z,9.30
2018-03-08T14:46:25.062Z,11.50
2018-03-08T14:48:52.534Z,10.37
2018-03-08T14:51:20.040Z,8.70
2018-03-08T14:53:47.514Z,9.90
2018-03-08T14:56:15.001Z,9.20
2018-03-08T14:58:42.457Z,8.83
2018-03-08T15:01:09.921Z,8.83
2018-03-08T15:03:37.410Z,8.80
2018-03-08T15:06:04.863Z,8.20
2018-03-08T15:08:32.355Z,8.40
2018-03-08T15:10:59.816Z,8.10
2018-03-08T15:13:27.293Z,6.80
2018-03-08T15:15:54.800Z,6.00
2018-03-08T15:18:22.283Z,5.07
2018-03-08T15:20:49.740Z,6.50
2018-03-08T15:25:51.083Z,5.50
2018-03-08T15:28:18.565Z,5.07
2018-03-08T15:30:46.043Z,6.20
2018-03-08T15:33:13.502Z,5.40
2018-03-08T15:35:40.983Z,4.73
2018-03-08T15:38:08.522Z,5.00
2018-03-08T15:40:35.974Z,6.57
2018-03-08T15:43:03.449Z,8.43
2018-03-08T15:45:30.906Z,11.03
2018-03-08T15:47:58.415Z,12.63
2018-03-08T15:50:25.889Z,10.57
2018-03-08T15:52:53.351Z,5.67
2018-03-08T15:55:20.831Z,4.87
2018-03-08T15:57:48.371Z,6.37
2018-03-08T16:00:15.824Z,7.60
2018-03-08T16:02:43.405Z,6.90
2018-03-08T16:05:10.866Z,12.40
2018-03-08T16:07:49.970Z,15.17
2018-03-08T16:10:40.178Z,6.40
2018-03-08T16:13:07.773Z,8.20
2018-03-08T16:15:35.259Z,7.10
2018-03-08T16:18:02.711Z,7.20
2018-03-08T16:20:30.173Z,6.30
2018-03-08T16:22:57.650Z,5.47
2018-03-08T16:25:25.125Z,6.40
2018-03-08T16:27:52.580Z,7.23
2018-03-08T16:30:20.074Z,9.40
2018-03-08T16:32:47.526Z,6.20
2018-03-08T16:35:14.974Z,6.37
2018-03-08T16:37:42.455Z,7.57
2018-03-08T16:40:09.902Z,8.47
2018-03-08T16:42:37.350Z,6.90
2018-03-08T16:45:04.823Z,5.93
2018-03-08T16:47:32.283Z,6.10
2018-03-08T16:49:59.746Z,9.07
2018-03-08T16:52:27.231Z,9.80
2018-03-08T16:54:54.701Z,14.97
2018-03-08T16:57:22.212Z,11.57
2018-03-08T16:59:49.651Z,13.23
2018-03-08T17:02:17.142Z,19.07
2018-03-08T17:04:44.683Z,11.53
2018-03-08T17:07:12.201Z,11.63
2018-03-08T17:09:39.698Z,8.73
2018-03-08T17:12:07.150Z,8.47
2018-03-08T17:14:34.686Z,8.43
2018-03-08T17:17:02.158Z,9.17
2018-03-08T17:19:29.607Z,8.40
2018-03-08T17:21:57.198Z,7.60
2018-03-08T17:24:24.626Z,7.90
2018-03-08T17:26:52.090Z,7.90
2018-03-08T17:29:19.611Z,7.07
2018-03-08T17:31:47.062Z,8.00
2018-03-08T17:34:14.528Z,8.17
2018-03-08T17:36:42.446Z,7.20
2018-03-08T17:39:09.917Z,8.77
2018-03-08T17:41:37.438Z,8.43
2018-03-08T17:44:04.895Z,9.40
2018-03-08T17:46:32.351Z,9.00
2018-03-08T17:48:59.821Z,10.20
2018-03-08T17:51:27.307Z,10.40
2018-03-08T17:53:54.854Z,8.87
2018-03-08T17:56:22.309Z,9.60
2018-03-08T17:58:49.787Z,8.23
2018-03-08T18:01:17.276Z,9.00
2018-03-08T18:03:44.743Z,8.10
2018-03-08T18:06:12.204Z,8.93
2018-03-08T18:08:39.677Z,9.80
2018-03-08T18:11:07.151Z,9.40
2018-03-08T18:13:34.644Z,7.67
2018-03-08T18:16:02.098Z,9.97
2018-03-08T18:18:29.551Z,8.00
2018-03-08T18:20:57.044Z,9.33
2018-03-08T18:23:24.501Z,10.30
2018-03-08T18:25:51.999Z,10.13
2018-03-08T18:28:19.455Z,11.00
2018-03-08T18:30:46.921Z,10.27
2018-03-08T18:33:14.426Z,11.17
2018-03-08T18:35:43.064Z,10.40
2018-03-08T18:38:10.596Z,8.77
2018-03-08T18:40:38.292Z,7.67
2018-03-08T18:43:05.751Z,8.93
2018-03-08T18:45:33.205Z,9.40
2018-03-08T18:48:02.339Z,8.53
2018-03-08T18:50:29.911Z,8.87
2018-03-08T18:52:57.360Z,8.97
2018-03-08T18:55:24.827Z,8.73
2018-03-08T18:57:52.300Z,11.10
2018-03-08T19:00:19.848Z,8.70
2018-03-08T19:02:47.306Z,9.20
2018-03-08T19:05:14.762Z,8.50
2018-03-08T19:07:43.063Z,8.97
2018-03-08T19:10:10.532Z,8.10
2018-03-08T19:12:37.990Z,8.70
2018-03-08T19:15:05.462Z,9.13
2018-03-08T19:17:32.948Z,12.17
2018-03-08T19:20:00.432Z,11.20
2018-03-08T19:22:28.059Z,8.70
2018-03-08T19:24:55.541Z,10.50
2018-03-08T19:27:23.022Z,7.70
2018-03-08T19:29:50.486Z,8.33
2018-03-08T19:32:17.987Z,8.83
2018-03-08T19:34:45.460Z,8.13
2018-03-08T19:37:13.079Z,9.07
2018-03-08T19:39:40.602Z,6.93
2018-03-08T19:42:08.095Z,6.87
2018-03-08T19:44:35.570Z,7.63
2018-03-08T19:47:03.057Z,8.07
2018-03-08T19:49:30.591Z,8.33
2018-03-08T19:51:58.066Z,6.23
2018-03-08T19:54:25.528Z,7.90
2018-03-08T19:56:53.028Z,7.03
2018-03-08T19:59:20.490Z,6.70
2018-03-08T20:01:47.956Z,7.30
2018-03-08T20:04:15.447Z,7.90
2018-03-08T20:06:42.917Z,8.70
2018-03-08T20:09:10.409Z,6.80
2018-03-08T20:11:37.894Z,6.00
2018-03-08T20:14:05.402Z,7.00
2018-03-08T20:16:32.871Z,8.40
2018-03-08T20:19:00.365Z,6.60
2018-03-08T20:21:27.855Z,6.23
2018-03-08T20:23:55.326Z,11.23
2018-03-08T20:26:22.802Z,7.03
2018-03-08T20:28:50.290Z,7.00
2018-03-08T20:31:17.751Z,7.30
2018-03-08T20:33:45.258Z,5.90
2018-03-08T20:36:12.763Z,9.47
2018-03-08T20:38:40.322Z,8.13
2018-03-08T20:41:07.852Z,7.87
2018-03-08T20:43:35.608Z,17.73
2018-03-08T20:46:03.074Z,7.87
2018-03-08T20:48:30.662Z,5.53
2018-03-08T20:50:58.167Z,10.40
2018-03-08T20:53:25.663Z,16.55
2018-03-08T20:55:53.134Z,6.97
2018-03-08T20:58:20.627Z,7.75
2018-03-08T21:00:48.109Z,6.70
2018-03-08T21:03:15.576Z,8.33
2018-03-08T21:05:43.051Z,5.57
2018-03-08T21:08:10.494Z,7.60
2018-03-08T21:10:40.807Z,10.47
2018-03-08T21:13:08.304Z,10.67
2018-03-08T21:15:35.828Z,8.00
2018-03-08T21:18:03.386Z,15.40
2018-03-08T21:20:30.889Z,14.63
2018-03-08T21:22:58.432Z,12.33
2018-03-08T21:25:25.908Z,8.77
2018-03-08T21:27:53.436Z,19.80
2018-03-08T21:30:20.936Z,11.67
2018-03-08T21:32:48.418Z,13.07
2018-03-08T21:35:15.877Z,7.73
2018-03-08T21:37:43.457Z,7.87
2018-03-08T21:40:10.914Z,11.80
2018-03-08T21:42:37.667Z,7.10
2018-03-08T21:45:05.180Z,15.43
2018-03-08T21:47:32.662Z,15.57
2018-03-08T21:50:00.132Z,17.77
2018-03-08T21:52:27.598Z,9.03
2018-03-08T21:54:55.052Z,6.20
2018-03-08T21:57:22.531Z,11.83
2018-03-08T21:59:50.025Z,14.47
2018-03-08T22:02:17.731Z,7.40
2018-03-08T22:04:45.179Z,7.45
2018-03-08T22:07:12.666Z,10.07
2018-03-08T22:09:40.232Z,7.65
2018-03-08T22:12:07.708Z,12.60
2018-03-08T22:14:35.176Z,8.60
2018-03-08T22:17:02.633Z,6.77
2018-03-08T22:19:30.110Z,6.70
2018-03-08T22:21:57.587Z,7.10
2018-03-08T22:24:25.051Z,7.40
2018-03-08T22:26:52.656Z,9.90
2018-03-08T22:29:20.132Z,9.00
2018-03-08T22:31:47.591Z,12.27
2018-03-08T22:34:15.085Z,14.03
2018-03-08T22:36:42.589Z,12.30
2018-03-08T22:39:10.072Z,15.30
2018-03-08T22:41:37.726Z,7.27
2018-03-08T22:44:05.184Z,15.07
2018-03-08T22:46:32.686Z,17.77
2018-03-08T22:49:00.152Z,19.17
2018-03-08T22:51:27.651Z,12.03
2018-03-08T22:53:55.118Z,16.83
2018-03-08T22:56:22.639Z,9.13
2018-03-08T22:58:50.101Z,12.43
2018-03-08T23:04:33.450Z,10.47
2018-03-08T23:07:00.919Z,8.07
2018-03-08T23:09:28.463Z,4.77
2018-03-08T23:11:56.168Z,5.30
2018-03-08T23:14:23.678Z,4.97
2018-03-08T23:16:51.122Z,3.93
2018-03-08T23:19:18.595Z,3.33
2018-03-08T23:21:46.054Z,3.37
2018-03-08T23:24:13.529Z,4.53
2018-03-08T23:26:41.007Z,3.70
2018-03-08T23:29:08.461Z,4.10
2018-03-08T23:31:35.903Z,3.60
2018-03-08T23:34:03.500Z,4.57
2018-03-08T23:36:30.958Z,10.77
2018-03-08T23:38:58.412Z,5.80
2018-03-08T23:41:25.970Z,6.00
2018-03-08T23:43:53.429Z,5.50
2018-03-08T23:46:20.918Z,8.83
2018-03-08T23:48:48.404Z,3.80
2018-03-08T23:51:15.850Z,4.97
2018-03-08T23:53:43.356Z,4.37
2018-03-08T23:56:10.807Z,4.40
2018-03-08T23:58:38.260Z,5.80
